MSC Vanessa — HOWD — position and weather

sailwx.info

Track history (hours):
 
Tides and Currents Weather Stations Pressure Air Temp Water Temp Dewpoint Dewpoint Depression Visibility Wind Speed Wind Dir Waves Ship Positions

MSC Vanessa

Last reported at 2016-Nov-27 07:33 UTC. Time now 2016-Dec-03 23:47 UTC.
Position N 31°56' W 080°25'.

Length 300 m; draft 11.3 m.

Type: Ship (hazmat cat D). MMSI: 356946000.

Date/timePositionNaut miles runAvg speedWind from/ knotsBaromVisibWave heightAir tempDewpointWater temp
2016-Nov-27 07:33N 31°56' W 080°25'8 7.8
2016-Nov-27 06:33N 31°56' W 080°34'8 8.0
2016-Nov-27 05:33N 31°58' W 080°43'1212.4
2016-Nov-27 04:33N 32°03' W 080°57'9 8.6
2016-Nov-27 03:33N 32°06' W 081°06'2 2.0
2016-Nov-27 02:31N 32°07' W 081°08'0 0.0
2016-Nov-27 01:31N 32°07' W 081°08'0 0.0
2016-Nov-27 00:31N 32°07' W 081°08'0 0.0
2016-Nov-26 23:31N 32°07' W 081°08'0 0.0
2016-Nov-26 22:31N 32°07' W 081°08'0 0.0
2016-Nov-26 21:31N 32°07' W 081°08'0 0.0
2016-Nov-26 20:31N 32°07' W 081°08'0 0.0
2016-Nov-26 19:31N 32°07' W 081°08'0 0.0
2016-Nov-26 18:31N 32°07' W 081°08'0 0.0
2016-Nov-26 17:31N 32°07' W 081°08'0 0.0
2016-Nov-26 16:31N 32°07' W 081°08'0 0.0
2016-Nov-26 15:31N 32°07' W 081°08'0 0.0
2016-Nov-26 14:19N 32°07' W 081°08'0 0.0
2016-Nov-26 13:31N 32°07' W 081°08'0 0.0
2016-Nov-26 12:31N 32°07' W 081°08'0 0.0
2016-Nov-26 11:31N 32°07' W 081°08'0 0.0
2016-Nov-26 10:31N 32°07' W 081°08'0 0.0
2016-Nov-26 09:31N 32°07' W 081°08'0 0.0
2016-Nov-26 08:31N 32°07' W 081°08'0 0.0
2016-Nov-26 07:19N 32°07' W 081°08'0 0.0
2016-Nov-26 06:31N 32°07' W 081°08'0 0.0
2016-Nov-26 05:19N 32°07' W 081°08'0 0.4
2016-Nov-26 04:33N 32°08' W 081°08'3 2.7
2016-Nov-26 03:33N 32°05' W 081°06'7 6.9
2016-Nov-26 02:33N 32°04' W 080°58'1010.0
2016-Nov-26 01:33N 31°60' W 080°47'9 9.2
2016-Nov-26 00:33N 31°57' W 080°37'8 7.6
2016-Nov-25 23:33N 31°58' W 080°28'8 7.5
2016-Nov-25 22:33N 31°59' W 080°19'8 8.4
2016-Nov-25 21:33N 31°60' W 080°10'  
2016-Nov-23 17:26N 36°48' W 075°40'9 9.4
2016-Nov-23 16:31N 36°51' W 075°50'9 9.0
2016-Nov-23 15:33N 36°56' W 075°58'1312.9
2016-Nov-23 14:33N 37°07' W 076°07'8015.8
2016-Nov-23 09:30N 38°26' W 076°22'1515.5
2016-Nov-23 08:34N 38°40' W 076°25'1717.4
2016-Nov-23 07:33N 38°58' W 076°23'1313.0
2016-Nov-23 06:33N 39°10' W 076°26'7 2.5
2016-Nov-23 03:32N 39°15' W 076°33'0 0.0
2016-Nov-23 02:32N 39°15' W 076°33'0 0.0
2016-Nov-23 00:32N 39°15' W 076°33'0 0.0
2016-Nov-22 23:32N 39°15' W 076°33'0 0.0
2016-Nov-22 22:32N 39°15' W 076°33'0 0.0
2016-Nov-22 20:32N 39°15' W 076°33'0 0.0
2016-Nov-22 19:32N 39°15' W 076°33'0 0.0
2016-Nov-22 17:32N 39°15' W 076°33'0 0.0
2016-Nov-22 16:32N 39°15' W 076°33'2 1.9
2016-Nov-22 15:33N 39°14' W 076°32'10 9.7
2016-Nov-22 14:34N 39°07' W 076°24'1212.4
2016-Nov-22 13:33N 38°54' W 076°24'5016.4
2016-Nov-22 10:31N 38°05' W 076°13'7114.3
2016-Nov-22 05:33N 36°55' W 075°55'8 7.7
2016-Nov-22 04:32N 36°50' W 075°47'23314.5
2016-Nov-21 12:30N 40°24' W 073°49'8 8.5
2016-Nov-21 11:33N 40°30' W 073°57'1211.9
2016-Nov-21 10:33N 40°39' W 074°07'3 1.4
2016-Nov-21 08:32N 40°41' W 074°09'0 0.0
2016-Nov-21 07:29N 40°41' W 074°09'0 0.0
2016-Nov-21 05:32N 40°41' W 074°09'0 0.0
2016-Nov-21 04:32N 40°41' W 074°09'0 0.0
2016-Nov-21 02:32N 40°41' W 074°09'0 0.0
2016-Nov-21 00:32N 40°41' W 074°09'0 0.0
2016-Nov-20 22:29N 40°41' W 074°09'0 0.0
2016-Nov-20 21:32N 40°41' W 074°09'0 0.0
2016-Nov-20 17:32N 40°41' W 074°09'0 0.0
2016-Nov-20 16:32N 40°41' W 074°09'0 0.0
2016-Nov-20 14:32N 40°41' W 074°09'0 0.0
2016-Nov-20 13:32N 40°41' W 074°09'0 0.0
2016-Nov-20 12:29N 40°41' W 074°09'6 1.9
2016-Nov-20 09:34N 40°38' W 074°03'1111.4
2016-Nov-20 08:33N 40°29' W 073°54'7 6.8
2016-Nov-20 07:33N 40°24' W 073°47'8 7.4
2016-Nov-20 06:31N 40°17' W 073°46'9 9.0
2016-Nov-20 05:31N 40°08' W 073°44'1010.8
2016-Nov-20 04:33N 39°57' W 073°42'1110.4
2016-Nov-20 03:31N 39°47' W 073°38'4711.8
2016-Nov-19 23:33N 39°01' W 073°46'1413.8
2016-Nov-19 22:33N 38°48' W 073°53'2813.8
2016-Nov-19 20:34N 38°23' W 074°08'1413.6
2016-Nov-19 19:34N 38°11' W 074°15'2713.7
2016-Nov-19 17:33N 37°46' W 074°30'1413.7
2016-Nov-19 16:33N 37°33' W 074°37'2813.6
2016-Nov-19 14:28N 37°10' W 074°58'3912.4
2016-Nov-19 11:21N 36°50' W 075°39'15 8.2
2016-Nov-19 09:34N 36°55' W 075°56'19 9.5
2016-Nov-19 07:33N 36°54' W 076°20'2 0.7
2016-Nov-19 05:31N 36°52' W 076°21'0 0.0
2016-Nov-19 04:31N 36°52' W 076°21'0 0.0
2016-Nov-19 03:28N 36°52' W 076°21'0 0.0
2016-Nov-19 02:31N 36°52' W 076°21'0 0.0
2016-Nov-19 01:31N 36°52' W 076°21'0 0.0
2016-Nov-19 00:31N 36°52' W 076°21'0 0.0
2016-Nov-18 23:31N 36°52' W 076°21'0 0.0
2016-Nov-18 20:31N 36°52' W 076°21'0 0.0
2016-Nov-18 18:31N 36°52' W 076°21'0 0.0
2016-Nov-18 17:31N 36°52' W 076°21'15 5.1
2016-Nov-18 14:33N 36°58' W 076°03'15 7.7
2016-Nov-18 12:33N 36°50' W 075°46'  
Track history (hours):
 
Tides and Currents Weather Stations Pressure Air Temp Water Temp Dewpoint Dewpoint Depression Visibility Wind Speed Wind Dir Waves Ship Positions

MSC Vanessa

Last reported at 2016-Nov-27 07:33 UTC. Time now 2016-Dec-03 23:47 UTC.
Position N 31°56' W 080°25'.

Length 300 m; draft 11.3 m.

Type: Ship (hazmat cat D). MMSI: 356946000.

Date/timePositionNaut miles runAvg speedWind from/ knotsBaromVisibWave heightAir tempDewpointWater temp
2016-Nov-27 07:33N 31°56' W 080°25'8 7.8
2016-Nov-27 06:33N 31°56' W 080°34'8 8.0
2016-Nov-27 05:33N 31°58' W 080°43'1212.4
2016-Nov-27 04:33N 32°03' W 080°57'9 8.6
2016-Nov-27 03:33N 32°06' W 081°06'2 2.0
2016-Nov-27 02:31N 32°07' W 081°08'0 0.0
2016-Nov-27 01:31N 32°07' W 081°08'0 0.0
2016-Nov-27 00:31N 32°07' W 081°08'0 0.0
2016-Nov-26 23:31N 32°07' W 081°08'0 0.0
2016-Nov-26 22:31N 32°07' W 081°08'0 0.0
2016-Nov-26 21:31N 32°07' W 081°08'0 0.0
2016-Nov-26 20:31N 32°07' W 081°08'0 0.0
2016-Nov-26 19:31N 32°07' W 081°08'0 0.0
2016-Nov-26 18:31N 32°07' W 081°08'0 0.0
2016-Nov-26 17:31N 32°07' W 081°08'0 0.0
2016-Nov-26 16:31N 32°07' W 081°08'0 0.0
2016-Nov-26 15:31N 32°07' W 081°08'0 0.0
2016-Nov-26 14:19N 32°07' W 081°08'0 0.0
2016-Nov-26 13:31N 32°07' W 081°08'0 0.0
2016-Nov-26 12:31N 32°07' W 081°08'0 0.0
2016-Nov-26 11:31N 32°07' W 081°08'0 0.0
2016-Nov-26 10:31N 32°07' W 081°08'0 0.0
2016-Nov-26 09:31N 32°07' W 081°08'0 0.0
2016-Nov-26 08:31N 32°07' W 081°08'0 0.0
2016-Nov-26 07:19N 32°07' W 081°08'0 0.0
2016-Nov-26 06:31N 32°07' W 081°08'0 0.0
2016-Nov-26 05:19N 32°07' W 081°08'0 0.4
2016-Nov-26 04:33N 32°08' W 081°08'3 2.7
2016-Nov-26 03:33N 32°05' W 081°06'7 6.9
2016-Nov-26 02:33N 32°04' W 080°58'1010.0
2016-Nov-26 01:33N 31°60' W 080°47'9 9.2
2016-Nov-26 00:33N 31°57' W 080°37'8 7.6
2016-Nov-25 23:33N 31°58' W 080°28'8 7.5
2016-Nov-25 22:33N 31°59' W 080°19'8 8.4
2016-Nov-25 21:33N 31°60' W 080°10'  
2016-Nov-23 17:26N 36°48' W 075°40'9 9.4
2016-Nov-23 16:31N 36°51' W 075°50'9 9.0
2016-Nov-23 15:33N 36°56' W 075°58'1312.9
2016-Nov-23 14:33N 37°07' W 076°07'8015.8
2016-Nov-23 09:30N 38°26' W 076°22'1515.5
2016-Nov-23 08:34N 38°40' W 076°25'1717.4
2016-Nov-23 07:33N 38°58' W 076°23'1313.0
2016-Nov-23 06:33N 39°10' W 076°26'7 2.5
2016-Nov-23 03:32N 39°15' W 076°33'0 0.0
2016-Nov-23 02:32N 39°15' W 076°33'0 0.0
2016-Nov-23 00:32N 39°15' W 076°33'0 0.0
2016-Nov-22 23:32N 39°15' W 076°33'0 0.0
2016-Nov-22 22:32N 39°15' W 076°33'0 0.0
2016-Nov-22 20:32N 39°15' W 076°33'0 0.0
2016-Nov-22 19:32N 39°15' W 076°33'0 0.0
2016-Nov-22 17:32N 39°15' W 076°33'0 0.0
2016-Nov-22 16:32N 39°15' W 076°33'2 1.9
2016-Nov-22 15:33N 39°14' W 076°32'10 9.7
2016-Nov-22 14:34N 39°07' W 076°24'1212.4
2016-Nov-22 13:33N 38°54' W 076°24'5016.4
2016-Nov-22 10:31N 38°05' W 076°13'7114.3
2016-Nov-22 05:33N 36°55' W 075°55'8 7.7
2016-Nov-22 04:32N 36°50' W 075°47'23314.5
2016-Nov-21 12:30N 40°24' W 073°49'8 8.5
2016-Nov-21 11:33N 40°30' W 073°57'1211.9
2016-Nov-21 10:33N 40°39' W 074°07'3 1.4
2016-Nov-21 08:32N 40°41' W 074°09'0 0.0
2016-Nov-21 07:29N 40°41' W 074°09'0 0.0
2016-Nov-21 05:32N 40°41' W 074°09'0 0.0
2016-Nov-21 04:32N 40°41' W 074°09'0 0.0
2016-Nov-21 02:32N 40°41' W 074°09'0 0.0
2016-Nov-21 00:32N 40°41' W 074°09'0 0.0
2016-Nov-20 22:29N 40°41' W 074°09'0 0.0
2016-Nov-20 21:32N 40°41' W 074°09'0 0.0
2016-Nov-20 17:32N 40°41' W 074°09'0 0.0
2016-Nov-20 16:32N 40°41' W 074°09'0 0.0
2016-Nov-20 14:32N 40°41' W 074°09'0 0.0
2016-Nov-20 13:32N 40°41' W 074°09'0 0.0
2016-Nov-20 12:29N 40°41' W 074°09'6 1.9
2016-Nov-20 09:34N 40°38' W 074°03'1111.4
2016-Nov-20 08:33N 40°29' W 073°54'7 6.8
2016-Nov-20 07:33N 40°24' W 073°47'8 7.4
2016-Nov-20 06:31N 40°17' W 073°46'9 9.0
2016-Nov-20 05:31N 40°08' W 073°44'1010.8
2016-Nov-20 04:33N 39°57' W 073°42'1110.4
2016-Nov-20 03:31N 39°47' W 073°38'4711.8
2016-Nov-19 23:33N 39°01' W 073°46'1413.8
2016-Nov-19 22:33N 38°48' W 073°53'2813.8
2016-Nov-19 20:34N 38°23' W 074°08'1413.6
2016-Nov-19 19:34N 38°11' W 074°15'2713.7
2016-Nov-19 17:33N 37°46' W 074°30'1413.7
2016-Nov-19 16:33N 37°33' W 074°37'2813.6
2016-Nov-19 14:28N 37°10' W 074°58'3912.4
2016-Nov-19 11:21N 36°50' W 075°39'15 8.2
2016-Nov-19 09:34N 36°55' W 075°56'19 9.5
2016-Nov-19 07:33N 36°54' W 076°20'2 0.7
2016-Nov-19 05:31N 36°52' W 076°21'0 0.0
2016-Nov-19 04:31N 36°52' W 076°21'0 0.0
2016-Nov-19 03:28N 36°52' W 076°21'0 0.0
2016-Nov-19 02:31N 36°52' W 076°21'0 0.0
2016-Nov-19 01:31N 36°52' W 076°21'0 0.0
2016-Nov-19 00:31N 36°52' W 076°21'0 0.0
2016-Nov-18 23:31N 36°52' W 076°21'0 0.0
2016-Nov-18 20:31N 36°52' W 076°21'0 0.0
2016-Nov-18 18:31N 36°52' W 076°21'0 0.0
2016-Nov-18 17:31N 36°52' W 076°21'15 5.1
2016-Nov-18 14:33N 36°58' W 076°03'15 7.7
2016-Nov-18 12:33N 36°50' W 075°46'  

Dump ship's entire track history